createdAt,value
2019-05-18T00:00:35.067Z,84.16
2019-05-18T00:01:10.937Z,83.77
2019-05-18T00:01:46.826Z,83.87
2019-05-18T00:02:22.852Z,83.87
2019-05-18T00:02:58.736Z,83.83
2019-05-18T00:03:34.699Z,83.78
2019-05-18T00:04:10.593Z,83.76
2019-05-18T00:04:46.648Z,83.75
2019-05-18T00:05:22.505Z,83.80
2019-05-18T00:05:58.775Z,83.80
2019-05-18T00:06:34.829Z,83.62
2019-05-18T00:07:10.734Z,83.62
2019-05-18T00:07:46.594Z,83.58
2019-05-18T00:08:22.492Z,83.04
2019-05-18T00:08:58.491Z,83.04
2019-05-18T00:09:34.454Z,83.56
2019-05-18T00:10:10.295Z,83.64
2019-05-18T00:10:46.281Z,83.63
2019-05-18T00:11:22.299Z,83.94
2019-05-18T00:11:58.176Z,83.65
2019-05-18T00:12:34.056Z,83.31
2019-05-18T00:13:09.932Z,83.31
2019-05-18T00:13:45.822Z,83.97
2019-05-18T00:14:21.705Z,83.97
2019-05-18T00:14:57.551Z,83.65
2019-05-18T00:15:33.457Z,83.65
2019-05-18T00:16:09.312Z,84.11
2019-05-18T00:16:45.183Z,84.11
2019-05-18T00:17:25.344Z,83.59
2019-05-18T00:17:59.023Z,83.48
2019-05-18T00:18:34.934Z,83.36
2019-05-18T00:19:12.105Z,83.36
2019-05-18T00:19:48.016Z,83.54
2019-05-18T00:20:23.916Z,83.47
2019-05-18T00:20:59.886Z,83.47
2019-05-18T00:21:35.893Z,83.13
2019-05-18T00:22:11.796Z,83.74
2019-05-18T00:22:47.682Z,83.74
2019-05-18T00:23:23.591Z,83.22
2019-05-18T00:23:59.447Z,83.54
2019-05-18T00:24:35.279Z,83.54
2019-05-18T00:25:11.378Z,82.74
2019-05-18T00:25:47.465Z,82.74
2019-05-18T00:26:23.413Z,82.99
2019-05-18T00:26:59.287Z,82.44
2019-05-18T00:27:35.181Z,82.63
2019-05-18T00:28:11.140Z,82.63
2019-05-18T00:28:47.048Z,82.31
2019-05-18T00:29:22.906Z,82.86
2019-05-18T00:29:58.811Z,82.86
2019-05-18T00:30:34.831Z,82.64
2019-05-18T00:31:10.756Z,82.64
2019-05-18T00:31:46.716Z,82.68
2019-05-18T00:32:22.605Z,82.68
2019-05-18T00:32:58.470Z,82.29
2019-05-18T00:33:34.498Z,81.76
2019-05-18T00:34:10.468Z,82.43
2019-05-18T00:34:46.356Z,82.43
2019-05-18T00:35:22.238Z,81.92
2019-05-18T00:35:58.143Z,81.92
2019-05-18T00:36:33.994Z,81.00
2019-05-18T00:37:09.896Z,81.00
2019-05-18T00:37:45.831Z,80.74
2019-05-18T00:38:21.714Z,80.33
2019-05-18T00:38:57.636Z,79.94
2019-05-18T00:39:33.518Z,79.35
2019-05-18T00:40:09.824Z,78.84
2019-05-18T00:40:45.693Z,78.43
2019-05-18T00:41:22.359Z,77.29
2019-05-18T00:41:58.477Z,76.58
2019-05-18T00:42:34.376Z,76.02
2019-05-18T00:43:10.541Z,75.26
2019-05-18T00:43:46.413Z,74.58
2019-05-18T00:44:22.311Z,73.81
2019-05-18T00:44:58.302Z,73.31
2019-05-18T00:45:34.196Z,73.06
2019-05-18T00:46:10.097Z,72.69
2019-05-18T00:46:45.981Z,72.09
2019-05-18T00:47:21.963Z,71.68
2019-05-18T00:47:57.785Z,70.73
2019-05-18T00:48:33.802Z,70.08
2019-05-18T00:49:09.719Z,69.98
2019-05-18T00:49:45.605Z,69.83
2019-05-18T00:50:21.563Z,69.46
2019-05-18T00:50:57.493Z,69.13
2019-05-18T00:51:33.518Z,68.90
2019-05-18T00:52:09.383Z,68.69
2019-05-18T00:52:45.255Z,68.82
2019-05-18T00:53:21.355Z,68.71
2019-05-18T00:53:57.262Z,68.52
2019-05-18T00:54:33.330Z,68.76
2019-05-18T00:55:09.452Z,69.30
2019-05-18T00:55:45.576Z,69.81
2019-05-18T00:56:22.853Z,70.30
2019-05-18T00:56:58.738Z,70.66
2019-05-18T00:57:34.651Z,70.99
2019-05-18T00:58:10.708Z,71.23
2019-05-18T00:58:46.778Z,71.55
2019-05-18T00:59:24.182Z,71.74
2019-05-18T01:00:00.127Z,71.77
2019-05-18T01:00:36.186Z,71.71
2019-05-18T01:01:12.258Z,71.53
2019-05-18T01:01:48.150Z,71.06
2019-05-18T01:02:24.212Z,70.59
2019-05-18T01:03:00.248Z,70.56
2019-05-18T01:03:39.455Z,70.67
2019-05-18T01:04:15.471Z,70.95
2019-05-18T01:04:51.444Z,71.32
2019-05-18T01:05:27.419Z,71.56
2019-05-18T01:06:03.323Z,71.73
2019-05-18T01:06:39.267Z,71.83
2019-05-18T01:07:15.395Z,71.90
2019-05-18T01:07:51.293Z,71.97
2019-05-18T01:08:27.158Z,72.08
2019-05-18T01:09:04.867Z,72.21
2019-05-18T01:09:40.771Z,72.36
2019-05-18T01:10:16.836Z,72.48
2019-05-18T01:10:52.881Z,72.49
2019-05-18T01:11:28.891Z,72.50
2019-05-18T01:12:04.788Z,72.34
2019-05-18T01:12:40.699Z,72.36
2019-05-18T01:13:16.895Z,72.32
2019-05-18T01:13:52.885Z,72.30
2019-05-18T01:14:28.755Z,72.32
2019-05-18T01:15:04.657Z,72.29
2019-05-18T01:15:40.570Z,72.41
2019-05-18T01:16:16.483Z,72.45
2019-05-18T01:16:52.460Z,72.48
2019-05-18T01:17:28.344Z,72.54
2019-05-18T01:18:04.298Z,72.59
2019-05-18T01:18:40.367Z,72.70
2019-05-18T01:19:16.266Z,72.87
2019-05-18T01:19:52.300Z,73.05
2019-05-18T01:20:28.285Z,73.29
2019-05-18T01:21:04.281Z,73.19
2019-05-18T01:21:40.313Z,73.24
2019-05-18T01:22:16.326Z,73.22
2019-05-18T01:22:52.323Z,73.21
2019-05-18T01:23:28.235Z,72.92
2019-05-18T01:24:04.228Z,72.34
2019-05-18T01:24:40.260Z,71.67
2019-05-18T01:25:16.298Z,71.36
2019-05-18T01:25:52.250Z,71.07
2019-05-18T01:26:28.334Z,70.68
2019-05-18T01:27:04.317Z,70.64
2019-05-18T01:27:40.167Z,70.68
2019-05-18T01:28:16.205Z,70.67
2019-05-18T01:29:01.670Z,70.87
2019-05-18T01:29:37.535Z,70.98
2019-05-18T01:30:14.442Z,70.85
2019-05-18T01:30:50.470Z,70.94
2019-05-18T01:31:26.485Z,71.03
2019-05-18T01:32:02.667Z,71.17
2019-05-18T01:32:38.563Z,71.31
2019-05-18T01:33:14.474Z,71.40
2019-05-18T01:33:50.344Z,71.51
2019-05-18T01:34:26.284Z,71.58
2019-05-18T01:35:02.240Z,71.66
2019-05-18T01:35:38.201Z,71.72
2019-05-18T01:36:14.132Z,71.78
2019-05-18T01:36:50.038Z,71.84
2019-05-18T01:37:25.966Z,71.81
2019-05-18T01:38:01.978Z,71.72
2019-05-18T01:38:37.959Z,71.72
2019-05-18T01:39:13.851Z,71.78
2019-05-18T01:39:49.742Z,71.83
2019-05-18T01:40:25.932Z,72.01
2019-05-18T01:41:01.837Z,72.14
2019-05-18T01:41:37.720Z,72.34
2019-05-18T01:42:13.712Z,72.66
2019-05-18T01:42:49.630Z,72.85
2019-05-18T01:43:25.545Z,72.96
2019-05-18T01:44:01.426Z,73.05
2019-05-18T01:44:37.323Z,73.07
2019-05-18T01:45:17.341Z,73.24
2019-05-18T01:45:51.038Z,73.25
2019-05-18T01:46:26.933Z,73.14
2019-05-18T01:47:02.947Z,73.02
2019-05-18T01:47:39.198Z,72.88
2019-05-18T01:48:15.105Z,72.99
2019-05-18T01:48:51.015Z,73.04
2019-05-18T01:49:26.911Z,73.04
2019-05-18T01:50:02.780Z,73.11
2019-05-18T01:50:38.807Z,73.22
2019-05-18T01:51:14.674Z,73.26
2019-05-18T01:51:50.711Z,73.45
2019-05-18T01:52:26.666Z,73.58
2019-05-18T01:53:05.265Z,73.64
2019-05-18T01:53:41.191Z,73.66
2019-05-18T01:54:17.359Z,73.64
2019-05-18T01:54:53.309Z,73.68
2019-05-18T01:55:29.226Z,73.62
2019-05-18T01:56:05.122Z,73.63
2019-05-18T01:56:41.033Z,73.60
2019-05-18T01:57:17.061Z,73.59
2019-05-18T01:57:52.961Z,73.48
2019-05-18T01:58:30.387Z,73.48
2019-05-18T01:59:06.452Z,73.56
2019-05-18T01:59:42.335Z,73.68
2019-05-18T02:00:19.925Z,73.74
2019-05-18T02:00:55.815Z,73.72
2019-05-18T02:01:31.696Z,73.67
2019-05-18T02:02:07.763Z,73.62
2019-05-18T02:02:43.668Z,73.62
2019-05-18T02:03:19.616Z,73.58
2019-05-18T02:03:55.497Z,73.66
2019-05-18T02:04:31.372Z,73.63
2019-05-18T02:05:07.722Z,73.40
2019-05-18T02:05:43.640Z,73.37
2019-05-18T02:06:19.488Z,73.42
2019-05-18T02:06:55.359Z,73.17
2019-05-18T02:07:31.275Z,72.70
2019-05-18T02:08:07.173Z,72.36
2019-05-18T02:08:43.167Z,71.99
2019-05-18T02:09:19.166Z,71.88
2019-05-18T02:09:55.043Z,71.68
2019-05-18T02:10:31.001Z,71.44
2019-05-18T02:11:07.096Z,71.08
2019-05-18T02:11:43.077Z,70.63
2019-05-18T02:12:18.985Z,70.41
2019-05-18T02:12:55.016Z,70.31
2019-05-18T02:13:31.011Z,70.19
2019-05-18T02:14:07.598Z,70.08
2019-05-18T02:14:43.707Z,69.77
2019-05-18T02:15:19.597Z,69.47
2019-05-18T02:15:55.491Z,69.17
2019-05-18T02:16:31.495Z,68.86
2019-05-18T02:17:07.708Z,68.49
2019-05-18T02:17:43.603Z,68.13
2019-05-18T02:18:28.838Z,67.51
2019-05-18T02:18:57.348Z,66.86
2019-05-18T02:19:33.368Z,66.17
2019-05-18T02:20:09.975Z,65.60
2019-05-18T02:20:46.008Z,64.95
2019-05-18T02:21:21.933Z,64.38
2019-05-18T02:21:57.819Z,63.64
2019-05-18T02:22:33.747Z,62.80
2019-05-18T02:23:09.614Z,62.50
2019-05-18T02:23:45.604Z,62.29
2019-05-18T02:24:21.571Z,62.05
2019-05-18T02:24:57.447Z,61.78
2019-05-18T02:25:33.367Z,61.35
2019-05-18T02:26:09.261Z,61.05
2019-05-18T02:26:45.169Z,60.72
2019-05-18T02:27:21.045Z,60.30
2019-05-18T02:27:56.971Z,59.83
2019-05-18T02:28:33.079Z,59.19
2019-05-18T02:29:09.075Z,58.96
2019-05-18T02:29:45.983Z,58.96
2019-05-18T02:30:22.066Z,58.65
2019-05-18T02:30:58.084Z,58.26
2019-05-18T02:31:33.946Z,57.80
2019-05-18T02:32:09.886Z,57.38
2019-05-18T02:32:45.867Z,57.15
2019-05-18T02:33:21.710Z,56.98
2019-05-18T02:33:57.606Z,57.07
2019-05-18T02:34:33.466Z,57.02
2019-05-18T02:35:09.623Z,56.90
2019-05-18T02:35:45.504Z,56.64
2019-05-18T02:36:21.530Z,56.23
2019-05-18T02:36:57.436Z,56.12
2019-05-18T02:37:33.305Z,56.02
2019-05-18T02:38:16.127Z,55.96
2019-05-18T02:38:51.997Z,55.74
2019-05-18T02:39:28.007Z,55.23
2019-05-18T02:40:03.964Z,54.96
2019-05-18T02:40:39.855Z,54.81
2019-05-18T02:41:15.786Z,54.58
2019-05-18T02:41:52.028Z,54.46
2019-05-18T02:42:30.638Z,54.35
2019-05-18T02:43:05.589Z,54.29
2019-05-18T02:43:41.546Z,54.32
2019-05-18T02:44:17.599Z,54.46
2019-05-18T02:44:53.745Z,54.40
2019-05-18T02:45:29.604Z,54.28
2019-05-18T02:46:05.484Z,54.05
2019-05-18T02:46:41.381Z,53.91
2019-05-18T02:47:17.237Z,53.77
2019-05-18T02:47:53.177Z,53.77
2019-05-18T02:48:47.126Z,53.83
2019-05-18T02:49:07.869Z,53.65
2019-05-18T02:49:43.761Z,53.30
2019-05-18T02:50:19.650Z,53.09
2019-05-18T02:50:55.548Z,52.95
2019-05-18T02:51:31.404Z,53.36
2019-05-18T02:52:07.437Z,53.88
2019-05-18T02:52:43.335Z,54.30
2019-05-18T02:53:19.221Z,54.64
2019-05-18T02:53:55.062Z,54.78
2019-05-18T02:54:30.904Z,54.69
2019-05-18T02:55:06.957Z,55.12
2019-05-18T02:55:42.823Z,55.22
2019-05-18T02:56:18.781Z,55.45
2019-05-18T02:56:54.689Z,55.82
2019-05-18T02:57:30.550Z,56.15
2019-05-18T02:58:06.452Z,56.37
2019-05-18T02:58:42.310Z,56.14
2019-05-18T02:59:18.212Z,55.71
2019-05-18T02:59:54.049Z,55.44
2019-05-18T03:00:29.915Z,55.34
2019-05-18T03:01:05.783Z,54.99
2019-05-18T03:01:41.678Z,54.76
2019-05-18T03:02:17.618Z,54.61
2019-05-18T03:02:53.498Z,54.43
2019-05-18T03:03:29.402Z,54.21
2019-05-18T03:04:05.320Z,53.98
2019-05-18T03:04:41.293Z,53.98
2019-05-18T03:05:17.192Z,53.96
2019-05-18T03:05:53.094Z,53.97
2019-05-18T03:06:28.957Z,54.29
2019-05-18T03:07:04.931Z,54.68
2019-05-18T03:07:40.851Z,54.85
2019-05-18T03:08:16.725Z,54.31
2019-05-18T03:08:52.613Z,53.90
2019-05-18T03:09:28.589Z,53.58
2019-05-18T03:10:04.646Z,53.28
2019-05-18T03:10:40.874Z,53.19
2019-05-18T03:11:16.804Z,53.40
2019-05-18T03:11:52.856Z,53.84
2019-05-18T03:12:28.854Z,54.26
2019-05-18T03:13:04.731Z,54.84
2019-05-18T03:13:40.600Z,55.10
2019-05-18T03:14:16.524Z,55.35
2019-05-18T03:14:52.473Z,55.39
2019-05-18T03:15:28.361Z,55.75
2019-05-18T03:16:04.387Z,56.17
2019-05-18T03:16:43.133Z,56.47
2019-05-18T03:17:19.025Z,56.78
2019-05-18T03:17:54.868Z,57.04
2019-05-18T03:18:30.799Z,57.29
2019-05-18T03:19:09.086Z,57.48
2019-05-18T03:19:45.316Z,57.81
2019-05-18T03:20:21.300Z,58.25
2019-05-18T03:20:57.571Z,58.66
2019-05-18T03:21:33.580Z,59.11
2019-05-18T03:22:09.590Z,59.46
2019-05-18T03:22:45.424Z,60.00
2019-05-18T03:23:21.385Z,60.21
2019-05-18T03:23:57.426Z,60.56
2019-05-18T03:24:33.339Z,60.76
2019-05-18T03:25:09.316Z,61.05
2019-05-18T03:25:45.613Z,61.36
2019-05-18T03:26:21.532Z,61.55
2019-05-18T03:26:57.444Z,61.87
2019-05-18T03:27:33.398Z,62.18
2019-05-18T03:28:09.308Z,62.42
2019-05-18T03:28:45.173Z,62.63
2019-05-18T03:29:21.131Z,62.74
2019-05-18T03:29:57.057Z,62.86
2019-05-18T03:30:33.028Z,63.07
2019-05-18T03:31:09.365Z,63.25
2019-05-18T03:31:45.329Z,63.42
2019-05-18T03:32:21.323Z,63.56
2019-05-18T03:32:57.210Z,63.75
2019-05-18T03:33:33.098Z,63.93
2019-05-18T03:34:08.991Z,64.15
2019-05-18T03:34:44.970Z,64.34
2019-05-18T03:35:20.841Z,64.85
2019-05-18T03:35:56.732Z,64.93
2019-05-18T03:36:32.712Z,65.04
2019-05-18T03:37:08.731Z,65.07
2019-05-18T03:37:44.610Z,65.15
2019-05-18T03:38:20.423Z,65.25
2019-05-18T03:38:56.317Z,65.35
2019-05-18T03:39:32.261Z,65.38
2019-05-18T03:40:08.324Z,65.15
2019-05-18T03:40:44.204Z,65.13
2019-05-18T03:41:20.403Z,65.11
2019-05-18T03:41:56.296Z,65.09
2019-05-18T03:42:32.176Z,65.13
2019-05-18T03:43:08.013Z,65.16
2019-05-18T03:43:43.860Z,65.28
2019-05-18T03:44:19.698Z,64.90
2019-05-18T03:44:55.562Z,64.33
2019-05-18T03:45:31.443Z,63.79
2019-05-18T03:46:07.459Z,63.38
2019-05-18T03:46:43.341Z,63.08
2019-05-18T03:47:19.278Z,62.63
2019-05-18T03:47:55.328Z,62.22
2019-05-18T03:48:31.168Z,61.78
2019-05-18T03:49:23.628Z,61.44
2019-05-18T03:49:44.777Z,60.66
2019-05-18T03:50:20.707Z,60.01
2019-05-18T03:50:56.585Z,59.52
2019-05-18T03:51:32.542Z,59.06
2019-05-18T03:52:08.429Z,58.45
2019-05-18T03:52:44.295Z,58.23
2019-05-18T03:53:20.123Z,57.98
2019-05-18T03:53:55.966Z,57.92
2019-05-18T03:54:31.792Z,58.03
2019-05-18T03:55:07.798Z,57.97
2019-05-18T03:55:43.632Z,58.19
2019-05-18T03:56:19.519Z,58.33
2019-05-18T03:56:55.378Z,57.98
2019-05-18T03:57:31.251Z,57.70
2019-05-18T03:58:07.239Z,57.47
2019-05-18T03:58:43.101Z,57.20
2019-05-18T03:59:18.965Z,57.16
2019-05-18T03:59:54.879Z,57.29
2019-05-18T04:00:30.863Z,57.41
2019-05-18T04:01:06.698Z,57.20
2019-05-18T04:01:42.561Z,56.95
2019-05-18T04:02:18.490Z,56.58
2019-05-18T04:02:54.385Z,56.37
2019-05-18T04:03:30.291Z,56.15
2019-05-18T04:04:06.197Z,55.97
2019-05-18T04:04:42.063Z,55.54
2019-05-18T04:05:17.941Z,55.50
2019-05-18T04:05:54.449Z,55.83
2019-05-18T04:06:30.356Z,55.73
2019-05-18T04:07:06.207Z,55.49
2019-05-18T04:07:42.167Z,55.26
2019-05-18T04:08:18.101Z,55.29
2019-05-18T04:08:53.986Z,55.31
2019-05-18T04:09:31.541Z,55.24
2019-05-18T04:10:07.893Z,55.51
2019-05-18T04:10:43.784Z,55.65
2019-05-18T04:11:19.645Z,55.80
2019-05-18T04:11:55.493Z,56.00
2019-05-18T04:12:31.527Z,56.04
2019-05-18T04:13:07.358Z,56.15
2019-05-18T04:13:43.254Z,56.44
2019-05-18T04:14:19.211Z,56.77
2019-05-18T04:14:55.204Z,57.21
2019-05-18T04:15:31.176Z,57.58
2019-05-18T04:16:07.094Z,57.88
2019-05-18T04:16:43.112Z,58.29
2019-05-18T04:17:18.961Z,58.69
2019-05-18T04:17:54.964Z,58.98
2019-05-18T04:18:32.094Z,59.29
2019-05-18T04:19:07.947Z,59.50
2019-05-18T04:19:46.901Z,59.71
2019-05-18T04:20:21.534Z,59.89
2019-05-18T04:20:57.466Z,60.21
2019-05-18T04:21:33.374Z,60.33
2019-05-18T04:22:09.388Z,60.53
2019-05-18T04:22:45.269Z,60.65
2019-05-18T04:23:21.270Z,60.88
2019-05-18T04:24:00.844Z,61.17
2019-05-18T04:24:41.291Z,61.22
2019-05-18T04:25:20.620Z,61.42
2019-05-18T04:26:10.446Z,61.56
2019-05-18T04:26:46.411Z,61.72
2019-05-18T04:27:22.368Z,61.95
2019-05-18T04:27:58.286Z,62.08
2019-05-18T04:28:34.289Z,62.24
2019-05-18T04:29:10.263Z,62.40
2019-05-18T04:29:49.585Z,62.53
2019-05-18T04:30:26.127Z,62.66
2019-05-18T04:31:02.671Z,62.83
2019-05-18T04:31:39.075Z,62.95
2019-05-18T04:32:15.638Z,62.78
2019-05-18T04:32:52.188Z,62.66
2019-05-18T04:33:28.463Z,62.66
2019-05-18T04:34:04.438Z,62.57
2019-05-18T04:34:40.727Z,62.51
2019-05-18T04:35:18.704Z,62.58
2019-05-18T04:35:54.659Z,62.70
2019-05-18T04:36:30.762Z,62.76
2019-05-18T04:37:06.817Z,62.88
2019-05-18T04:37:42.850Z,62.96
2019-05-18T04:38:18.720Z,63.15
2019-05-18T04:38:54.713Z,63.13
2019-05-18T04:39:30.699Z,63.12
2019-05-18T04:40:08.389Z,63.09
2019-05-18T04:40:44.344Z,63.08
2019-05-18T04:41:20.327Z,63.08
2019-05-18T04:41:56.255Z,63.09
2019-05-18T04:42:32.122Z,63.17
2019-05-18T04:43:10.086Z,63.23
2019-05-18T04:43:46.065Z,63.24
2019-05-18T04:44:21.965Z,63.38
2019-05-18T04:44:57.968Z,63.46
2019-05-18T04:45:34.048Z,63.49
2019-05-18T04:46:10.027Z,63.48
2019-05-18T04:46:46.420Z,63.31
2019-05-18T04:47:22.457Z,63.07
2019-05-18T04:47:58.429Z,62.85
2019-05-18T04:48:35.120Z,62.69
2019-05-18T04:49:11.645Z,62.35
2019-05-18T04:50:03.963Z,61.93
2019-05-18T04:50:26.121Z,61.62
2019-05-18T04:51:02.063Z,61.93
2019-05-18T04:51:37.985Z,61.92
2019-05-18T04:52:13.999Z,61.77
2019-05-18T04:52:49.904Z,61.35
2019-05-18T04:53:25.767Z,61.13
2019-05-18T04:54:01.736Z,60.93
2019-05-18T04:54:37.615Z,60.37
2019-05-18T04:55:13.602Z,59.72
2019-05-18T04:55:49.574Z,59.03
2019-05-18T04:56:25.431Z,58.63
2019-05-18T04:57:01.313Z,58.64
2019-05-18T04:57:37.201Z,58.78
2019-05-18T04:58:13.049Z,58.53
2019-05-18T04:58:48.915Z,58.54
2019-05-18T04:59:24.790Z,58.49
2019-05-18T05:00:00.633Z,58.49
2019-05-18T05:00:36.477Z,58.55
2019-05-18T05:01:12.356Z,58.66
2019-05-18T05:01:48.269Z,58.86
2019-05-18T05:02:24.498Z,59.12
2019-05-18T05:03:00.385Z,59.43
2019-05-18T05:03:36.379Z,59.77
2019-05-18T05:04:12.364Z,59.95
2019-05-18T05:04:51.808Z,60.07
2019-05-18T05:05:25.915Z,60.29
2019-05-18T05:06:01.776Z,60.56
2019-05-18T05:06:37.640Z,60.76
2019-05-18T05:07:13.697Z,60.80
2019-05-18T05:07:49.701Z,61.03
2019-05-18T05:08:25.559Z,61.18
2019-05-18T05:09:01.561Z,61.35
2019-05-18T05:09:37.411Z,61.57
2019-05-18T05:10:13.627Z,61.76
2019-05-18T05:10:53.021Z,61.95
2019-05-18T05:11:29.349Z,62.12
2019-05-18T05:12:05.805Z,62.38
2019-05-18T05:12:42.163Z,62.41
2019-05-18T05:13:18.510Z,62.39
2019-05-18T05:13:54.349Z,62.40
2019-05-18T05:14:30.338Z,62.41
2019-05-18T05:15:06.518Z,62.48
2019-05-18T05:15:42.389Z,62.65
2019-05-18T05:16:18.636Z,62.85
2019-05-18T05:16:54.519Z,62.94
2019-05-18T05:17:30.437Z,62.99
2019-05-18T05:18:06.338Z,63.18
2019-05-18T05:18:42.325Z,63.29
2019-05-18T05:19:18.182Z,63.44
2019-05-18T05:19:54.095Z,63.52
2019-05-18T05:20:30.010Z,63.63
2019-05-18T05:21:07.516Z,63.72
2019-05-18T05:21:43.483Z,63.71
2019-05-18T05:22:19.346Z,63.77
2019-05-18T05:22:55.258Z,63.86
2019-05-18T05:23:31.154Z,63.95
2019-05-18T05:24:07.023Z,64.03
2019-05-18T05:24:43.118Z,64.07
2019-05-18T05:25:19.045Z,64.10
2019-05-18T05:25:54.891Z,64.15
2019-05-18T05:26:30.844Z,64.08
2019-05-18T05:27:07.367Z,63.98
2019-05-18T05:27:43.392Z,63.94
2019-05-18T05:28:19.276Z,63.92
2019-05-18T05:28:55.217Z,63.92
2019-05-18T05:29:31.115Z,64.05
2019-05-18T05:30:07.086Z,64.08
2019-05-18T05:30:42.990Z,64.13
2019-05-18T05:31:18.952Z,64.02
2019-05-18T05:31:55.084Z,63.64
2019-05-18T05:32:30.984Z,63.29
2019-05-18T05:33:06.883Z,62.85
2019-05-18T05:33:42.779Z,62.46
2019-05-18T05:34:18.672Z,62.09
2019-05-18T05:34:54.531Z,61.91
2019-05-18T05:35:30.686Z,61.77
2019-05-18T05:36:08.797Z,61.60
2019-05-18T05:36:44.821Z,61.30
2019-05-18T05:37:21.633Z,61.07
2019-05-18T05:37:58.130Z,61.07
2019-05-18T05:38:34.639Z,61.08
2019-05-18T05:39:11.958Z,61.17
2019-05-18T05:39:48.014Z,61.25
2019-05-18T05:40:24.172Z,61.10
2019-05-18T05:41:00.114Z,61.15
2019-05-18T05:41:36.075Z,61.31
2019-05-18T05:42:11.920Z,61.42
2019-05-18T05:42:47.909Z,61.40
2019-05-18T05:43:23.779Z,61.24
2019-05-18T05:43:59.582Z,61.09
2019-05-18T05:44:35.474Z,61.11
2019-05-18T05:45:11.673Z,61.04
2019-05-18T05:45:47.589Z,60.93
2019-05-18T05:46:23.511Z,60.83
2019-05-18T05:46:59.406Z,60.58
2019-05-18T05:47:35.255Z,60.24
2019-05-18T05:48:11.087Z,60.01
2019-05-18T05:48:47.052Z,59.80
2019-05-18T05:49:22.914Z,59.61
2019-05-18T05:50:00.266Z,59.42
2019-05-18T05:50:36.814Z,59.27
2019-05-18T05:51:12.948Z,59.12
2019-05-18T05:51:48.855Z,59.07
2019-05-18T05:52:24.750Z,59.25
2019-05-18T05:53:00.609Z,59.35
2019-05-18T05:53:36.470Z,58.88
2019-05-18T05:54:12.375Z,58.80
2019-05-18T05:54:48.372Z,58.83
2019-05-18T05:55:24.252Z,58.85
2019-05-18T05:56:00.112Z,58.84
2019-05-18T05:56:35.906Z,58.76
2019-05-18T05:57:12.428Z,58.85
2019-05-18T05:57:48.394Z,58.93
2019-05-18T05:58:24.287Z,59.21
2019-05-18T05:59:00.382Z,59.50
2019-05-18T05:59:36.246Z,59.32
2019-05-18T06:00:12.537Z,59.01
2019-05-18T06:00:48.446Z,58.36
2019-05-18T06:01:24.282Z,57.72
2019-05-18T06:02:00.159Z,57.10
2019-05-18T06:02:36.014Z,56.74
2019-05-18T06:03:11.970Z,56.44
2019-05-18T06:03:47.866Z,56.38
2019-05-18T06:04:23.744Z,56.23
2019-05-18T06:04:59.592Z,56.25
2019-05-18T06:05:35.519Z,56.27
2019-05-18T06:06:11.423Z,56.05
2019-05-18T06:06:47.314Z,55.88
2019-05-18T06:07:23.187Z,55.72
2019-05-18T06:07:59.105Z,55.48
2019-05-18T06:08:35.107Z,55.33
2019-05-18T06:09:11.352Z,55.03
2019-05-18T06:09:47.234Z,54.49
2019-05-18T06:10:23.138Z,54.55
2019-05-18T06:10:59.405Z,54.84
2019-05-18T06:11:35.253Z,55.15
2019-05-18T06:12:11.133Z,55.15
2019-05-18T06:12:47.004Z,55.12
2019-05-18T06:13:23.038Z,55.19
2019-05-18T06:13:58.970Z,55.53
2019-05-18T06:14:34.876Z,55.75
2019-05-18T06:15:11.207Z,55.96
2019-05-18T06:15:47.170Z,56.15
2019-05-18T06:16:23.050Z,56.27
2019-05-18T06:16:58.940Z,56.46
2019-05-18T06:17:34.815Z,56.66
2019-05-18T06:18:10.675Z,57.04
2019-05-18T06:18:46.562Z,57.51
2019-05-18T06:19:22.481Z,57.74
2019-05-18T06:19:58.319Z,57.99
2019-05-18T06:20:34.187Z,58.12
2019-05-18T06:21:10.084Z,58.08
2019-05-18T06:21:45.935Z,58.13
2019-05-18T06:22:21.802Z,58.17
2019-05-18T06:22:57.669Z,58.30
2019-05-18T06:23:33.533Z,58.42
2019-05-18T06:24:09.374Z,58.66
2019-05-18T06:24:45.317Z,58.77
2019-05-18T06:25:21.171Z,58.89
2019-05-18T06:25:57.130Z,58.86
2019-05-18T06:26:33.115Z,58.94
2019-05-18T06:27:09.000Z,59.18
2019-05-18T06:27:44.939Z,59.57
2019-05-18T06:28:20.770Z,59.79
2019-05-18T06:28:56.758Z,60.24
2019-05-18T06:29:32.635Z,60.30
2019-05-18T06:30:08.781Z,60.48
2019-05-18T06:30:44.773Z,60.57
2019-05-18T06:31:23.047Z,60.71
2019-05-18T06:31:58.322Z,60.18
2019-05-18T06:32:34.737Z,60.28
2019-05-18T06:33:10.612Z,60.37
2019-05-18T06:33:46.619Z,60.43
2019-05-18T06:34:22.498Z,60.47
2019-05-18T06:34:58.354Z,60.51
2019-05-18T06:35:34.337Z,60.74
2019-05-18T06:36:10.327Z,60.76
2019-05-18T06:36:46.198Z,60.79
2019-05-18T06:37:22.284Z,61.21
2019-05-18T06:37:58.155Z,61.35
2019-05-18T06:38:34.032Z,61.30
2019-05-18T06:39:10.470Z,61.36
2019-05-18T06:39:46.447Z,61.51
2019-05-18T06:40:22.317Z,61.55
2019-05-18T06:40:58.196Z,61.62
2019-05-18T06:41:34.240Z,61.54
2019-05-18T06:42:10.939Z,61.49
2019-05-18T06:42:53.197Z,61.37
2019-05-18T06:43:29.053Z,61.43
2019-05-18T06:44:05.055Z,61.67
2019-05-18T06:44:40.983Z,61.75
2019-05-18T06:45:16.939Z,62.01
2019-05-18T06:45:52.834Z,61.98
2019-05-18T06:46:28.669Z,61.88
2019-05-18T06:47:04.647Z,61.92
2019-05-18T06:47:40.549Z,61.93
2019-05-18T06:48:16.449Z,61.84
2019-05-18T06:48:52.531Z,61.83
2019-05-18T06:49:28.627Z,61.84
2019-05-18T06:50:04.650Z,61.79
2019-05-18T06:50:40.510Z,61.70
2019-05-18T06:51:16.504Z,61.60
2019-05-18T06:51:52.479Z,61.45
2019-05-18T06:52:28.499Z,61.46
2019-05-18T06:53:04.412Z,61.39
2019-05-18T06:53:40.430Z,61.22
2019-05-18T06:54:16.362Z,61.07
2019-05-18T06:54:52.611Z,60.98
2019-05-18T06:55:28.854Z,60.95
2019-05-18T06:56:05.189Z,60.63
2019-05-18T06:56:41.442Z,60.18
2019-05-18T06:57:17.511Z,59.81
2019-05-18T06:57:56.494Z,59.41
2019-05-18T06:58:31.795Z,59.06
2019-05-18T06:59:08.264Z,58.75
2019-05-18T06:59:44.263Z,58.59
2019-05-18T07:00:20.375Z,58.07
2019-05-18T07:00:56.334Z,56.85
2019-05-18T07:01:32.175Z,56.12
2019-05-18T07:02:08.033Z,55.60
2019-05-18T07:02:44.011Z,55.28
2019-05-18T07:03:21.486Z,55.36
2019-05-18T07:03:57.594Z,55.32
2019-05-18T07:04:33.619Z,55.40
2019-05-18T07:05:09.931Z,55.23
2019-05-18T07:05:45.946Z,55.18
2019-05-18T07:06:21.827Z,55.09
2019-05-18T07:06:57.828Z,55.16
2019-05-18T07:07:33.705Z,55.18
2019-05-18T07:08:09.590Z,55.10
2019-05-18T07:08:45.577Z,54.62
2019-05-18T07:09:21.459Z,54.01
2019-05-18T07:09:57.417Z,53.73
2019-05-18T07:10:33.367Z,53.87
2019-05-18T07:11:09.243Z,54.09
2019-05-18T07:11:45.154Z,54.29
2019-05-18T07:12:20.992Z,54.53
2019-05-18T07:12:56.908Z,54.65
2019-05-18T07:13:32.774Z,54.61
2019-05-18T07:14:09.311Z,54.69
2019-05-18T07:14:45.247Z,54.79
2019-05-18T07:15:21.339Z,54.85
2019-05-18T07:15:57.252Z,54.89
2019-05-18T07:16:33.124Z,54.88
2019-05-18T07:17:09.418Z,54.96
2019-05-18T07:17:45.284Z,55.10
2019-05-18T07:18:21.137Z,55.26
2019-05-18T07:18:56.966Z,55.67
2019-05-18T07:19:33.531Z,55.74
2019-05-18T07:20:09.558Z,55.91
2019-05-18T07:20:45.442Z,56.12
2019-05-18T07:21:22.711Z,56.37
2019-05-18T07:21:58.836Z,56.55
2019-05-18T07:22:34.692Z,56.72
2019-05-18T07:23:10.560Z,56.91
2019-05-18T07:23:46.506Z,57.02
2019-05-18T07:24:22.618Z,57.20
2019-05-18T07:24:58.547Z,57.42
2019-05-18T07:25:34.470Z,57.61
2019-05-18T07:26:10.334Z,57.82
2019-05-18T07:26:46.185Z,58.07
2019-05-18T07:27:22.033Z,58.25
2019-05-18T07:27:57.955Z,58.51
2019-05-18T07:28:33.796Z,58.87
2019-05-18T07:29:09.668Z,59.25
2019-05-18T07:29:45.632Z,59.34
2019-05-18T07:30:21.465Z,59.58
2019-05-18T07:30:57.373Z,59.85
2019-05-18T07:31:33.265Z,60.06
2019-05-18T07:32:09.087Z,60.36
2019-05-18T07:32:44.941Z,60.43
2019-05-18T07:33:20.831Z,60.36
2019-05-18T07:33:56.805Z,60.52
2019-05-18T07:34:32.744Z,60.78
2019-05-18T07:35:09.075Z,61.05
2019-05-18T07:35:44.925Z,61.35
2019-05-18T07:36:20.825Z,61.59
2019-05-18T07:36:56.915Z,61.77
2019-05-18T07:37:32.934Z,62.00
2019-05-18T07:38:08.939Z,62.12
2019-05-18T07:38:44.844Z,62.21
2019-05-18T07:39:20.700Z,62.34
2019-05-18T07:39:56.608Z,62.44
2019-05-18T07:40:32.481Z,62.52
2019-05-18T07:41:08.407Z,62.59
2019-05-18T07:41:46.652Z,62.58
2019-05-18T07:42:22.107Z,62.60
2019-05-18T07:42:58.149Z,62.63
2019-05-18T07:43:34.082Z,62.38
2019-05-18T07:44:09.979Z,62.14
2019-05-18T07:44:45.857Z,61.96
2019-05-18T07:45:21.735Z,61.81